createdAt,value
2019-05-13T00:00:34.166Z,92.33
2019-05-13T00:02:43.641Z,92.65
2019-05-13T00:04:49.951Z,92.29
2019-05-13T00:06:57.782Z,92.20
2019-05-13T00:09:07.550Z,92.59
2019-05-13T00:11:14.584Z,92.68
2019-05-13T00:13:23.653Z,92.55
2019-05-13T00:15:33.957Z,92.60
2019-05-13T00:17:40.921Z,92.57
2019-05-13T00:19:48.060Z,92.35
2019-05-13T00:22:03.549Z,92.46
2019-05-13T00:24:15.754Z,92.40
2019-05-13T00:26:24.430Z,92.29
2019-05-13T00:28:33.976Z,92.34
2019-05-13T00:30:40.403Z,92.80
2019-05-13T00:32:47.462Z,92.92
2019-05-13T00:34:54.497Z,92.14
2019-05-13T00:37:08.856Z,92.43
2019-05-13T00:39:11.421Z,92.11
2019-05-13T00:41:18.439Z,92.39
2019-05-13T00:43:25.465Z,92.26
2019-05-13T00:45:34.028Z,92.32
2019-05-13T00:47:47.403Z,92.50
2019-05-13T00:50:04.574Z,92.56
2019-05-13T00:52:14.922Z,92.30
2019-05-13T00:54:23.888Z,92.15
2019-05-13T00:56:31.083Z,92.19
2019-05-13T00:58:38.150Z,91.99
2019-05-13T01:00:45.664Z,92.41
2019-05-13T01:02:53.347Z,92.14
2019-05-13T01:05:00.539Z,92.53
2019-05-13T01:07:21.107Z,92.27
2019-05-13T01:09:16.308Z,91.84
2019-05-13T01:11:23.743Z,92.05
2019-05-13T01:13:34.348Z,92.10
2019-05-13T01:15:47.470Z,92.21
2019-05-13T01:18:00.308Z,92.32
2019-05-13T01:20:14.431Z,92.39
2019-05-13T01:22:24.008Z,92.53
2019-05-13T01:24:33.378Z,92.41
2019-05-13T01:26:39.989Z,92.03
2019-05-13T01:28:47.576Z,92.02
2019-05-13T01:30:54.632Z,91.93
2019-05-13T01:33:04.074Z,92.62
2019-05-13T01:35:10.639Z,93.03
2019-05-13T01:37:17.701Z,92.94
2019-05-13T01:39:24.932Z,92.67
2019-05-13T01:41:33.360Z,92.89
2019-05-13T01:43:46.700Z,93.06
2019-05-13T01:46:04.548Z,92.75
2019-05-13T01:48:14.733Z,92.92
2019-05-13T01:50:27.795Z,93.16
2019-05-13T01:52:36.846Z,92.74
2019-05-13T01:54:44.349Z,92.53
2019-05-13T01:56:53.523Z,93.05
2019-05-13T01:59:00.309Z,93.09
2019-05-13T02:01:07.339Z,92.89
2019-05-13T02:03:14.787Z,92.75
2019-05-13T02:05:24.093Z,92.83
2019-05-13T02:07:30.705Z,92.22
2019-05-13T02:09:37.829Z,92.55
2019-05-13T02:11:47.778Z,92.15
2019-05-13T02:13:54.816Z,92.41
2019-05-13T02:16:03.935Z,92.57
2019-05-13T02:18:10.685Z,92.57
2019-05-13T02:20:18.471Z,92.74
2019-05-13T02:22:25.528Z,92.30
2019-05-13T02:24:34.110Z,92.07
2019-05-13T02:26:43.718Z,92.08
2019-05-13T02:28:50.613Z,91.98
2019-05-13T02:30:57.743Z,91.83
2019-05-13T02:33:07.712Z,91.98
2019-05-13T02:35:16.583Z,92.15
2019-05-13T02:37:23.629Z,92.71
2019-05-13T02:39:32.901Z,92.46
2019-05-13T02:41:42.505Z,92.24
2019-05-13T02:43:52.397Z,92.34
2019-05-13T02:45:58.164Z,92.04
2019-05-13T02:48:05.532Z,92.34
2019-05-13T02:50:13.418Z,92.32
2019-05-13T02:52:22.424Z,92.61
2019-05-13T02:54:38.240Z,92.25
2019-05-13T02:56:52.613Z,92.61
2019-05-13T02:59:05.955Z,92.95
2019-05-13T03:01:22.360Z,92.65
2019-05-13T03:03:32.680Z,92.96
2019-05-13T03:05:42.783Z,93.03
2019-05-13T03:07:48.854Z,93.03
2019-05-13T03:09:55.968Z,92.95
2019-05-13T03:12:04.326Z,93.47
2019-05-13T03:14:12.835Z,92.99
2019-05-13T03:16:23.102Z,93.13
2019-05-13T03:18:33.516Z,93.35
2019-05-13T03:20:44.891Z,92.88
2019-05-13T03:23:03.015Z,92.95
2019-05-13T03:25:15.781Z,92.79
2019-05-13T03:27:33.300Z,92.71
2019-05-13T03:29:43.182Z,92.40
2019-05-13T03:31:54.868Z,91.86
2019-05-13T03:33:58.145Z,91.75
2019-05-13T03:36:07.841Z,92.16
2019-05-13T03:38:14.178Z,91.57
2019-05-13T03:40:23.371Z,91.92
2019-05-13T03:42:34.149Z,91.60
2019-05-13T03:44:44.861Z,91.84
2019-05-13T03:46:57.316Z,91.96
2019-05-13T03:49:14.112Z,91.78
2019-05-13T03:51:33.390Z,91.65
2019-05-13T03:53:53.587Z,91.23
2019-05-13T03:56:03.601Z,91.62
2019-05-13T03:58:13.269Z,91.46
2019-05-13T04:00:23.595Z,91.93
2019-05-13T04:02:32.571Z,91.13
2019-05-13T04:04:42.115Z,91.06
2019-05-13T04:06:47.931Z,90.65
2019-05-13T04:09:15.714Z,90.98
2019-05-13T04:11:06.059Z,90.76
2019-05-13T04:13:13.479Z,91.08
2019-05-13T04:15:23.481Z,90.55
2019-05-13T04:17:32.596Z,90.71
2019-05-13T04:19:42.401Z,90.12
2019-05-13T04:21:52.632Z,90.42
2019-05-13T04:23:58.544Z,89.89
2019-05-13T04:26:07.492Z,90.69
2019-05-13T04:28:14.529Z,89.94
2019-05-13T04:30:23.050Z,89.69
2019-05-13T04:32:33.513Z,89.68
2019-05-13T04:34:41.546Z,90.13
2019-05-13T04:36:47.756Z,89.73
2019-05-13T04:38:58.399Z,90.42
2019-05-13T04:41:12.143Z,90.67
2019-05-13T04:43:33.713Z,89.90
2019-05-13T04:45:43.432Z,90.05
2019-05-13T04:47:52.850Z,89.80
2019-05-13T04:50:02.942Z,90.74
2019-05-13T04:52:09.226Z,90.58
2019-05-13T04:54:16.249Z,89.95
2019-05-13T04:56:23.587Z,90.01
2019-05-13T04:58:32.233Z,89.90
2019-05-13T05:01:02.323Z,89.69
2019-05-13T05:03:33.512Z,90.31
2019-05-13T05:06:33.193Z,90.02
2019-05-13T05:09:12.843Z,89.81
2019-05-13T05:12:02.907Z,90.53
2019-05-13T05:14:52.195Z,90.86
2019-05-13T05:17:22.501Z,89.75
2019-05-13T05:19:55.799Z,89.86
2019-05-13T05:22:53.871Z,90.10
2019-05-13T05:25:29.304Z,90.01
2019-05-13T05:28:08.452Z,90.04
2019-05-13T05:31:03.426Z,89.75
2019-05-13T05:33:41.169Z,90.04
2019-05-13T05:36:21.821Z,90.29
2019-05-13T05:39:12.317Z,89.82
2019-05-13T05:41:22.901Z,90.37
2019-05-13T05:43:31.754Z,89.20
2019-05-13T05:45:41.740Z,90.15
2019-05-13T05:47:52.357Z,89.85
2019-05-13T05:50:02.831Z,90.09
2019-05-13T05:52:12.293Z,89.81
2019-05-13T05:54:22.920Z,90.00
2019-05-13T05:56:33.022Z,89.08
2019-05-13T05:58:42.523Z,88.53
2019-05-13T06:00:52.108Z,88.59
2019-05-13T06:03:02.538Z,89.04
2019-05-13T06:05:12.638Z,89.00
2019-05-13T06:07:22.043Z,88.93
2019-05-13T06:09:31.507Z,89.08
2019-05-13T06:11:38.198Z,88.95
2019-05-13T06:13:45.229Z,89.28
2019-05-13T06:15:52.341Z,89.35
2019-05-13T06:18:02.269Z,89.81
2019-05-13T06:20:13.217Z,89.37
2019-05-13T06:22:18.907Z,88.80
2019-05-13T06:24:32.548Z,88.97
2019-05-13T06:26:42.045Z,89.29
2019-05-13T06:28:49.355Z,89.07
2019-05-13T06:30:58.520Z,90.12
2019-05-13T06:33:05.755Z,89.95
2019-05-13T06:35:12.886Z,89.32
2019-05-13T06:37:21.681Z,88.75
2019-05-13T06:39:31.568Z,89.00
2019-05-13T06:41:38.166Z,89.23
2019-05-13T06:43:45.263Z,88.11
2019-05-13T06:46:01.911Z,89.29
2019-05-13T06:48:11.717Z,89.18
2019-05-13T06:50:19.158Z,88.85
2019-05-13T06:52:26.190Z,89.36
2019-05-13T06:54:33.463Z,89.60
2019-05-13T06:56:42.875Z,89.50
2019-05-13T06:58:51.724Z,89.02
2019-05-13T07:00:58.869Z,88.90
2019-05-13T07:03:09.086Z,89.65
2019-05-13T07:05:22.646Z,90.24
2019-05-13T07:07:31.937Z,90.42
2019-05-13T07:09:39.293Z,90.74
2019-05-13T07:11:46.435Z,90.66
2019-05-13T07:13:53.625Z,90.95
2019-05-13T07:16:01.361Z,90.57
2019-05-13T07:18:08.565Z,89.50
2019-05-13T07:20:16.440Z,89.37
2019-05-13T07:22:23.640Z,88.88
2019-05-13T07:24:36.383Z,88.63
2019-05-13T07:26:43.442Z,88.45
2019-05-13T07:28:52.419Z,88.41
2019-05-13T07:30:59.324Z,88.94
2019-05-13T07:33:08.383Z,88.62
2019-05-13T07:35:17.748Z,88.07
2019-05-13T07:37:27.231Z,88.48
2019-05-13T07:39:34.274Z,88.51
2019-05-13T07:41:43.413Z,88.66
2019-05-13T07:43:51.700Z,88.70
2019-05-13T07:45:59.102Z,87.49
2019-05-13T07:48:19.391Z,87.79
2019-05-13T07:50:15.958Z,87.49
2019-05-13T07:52:23.330Z,86.69
2019-05-13T07:54:33.440Z,85.25
2019-05-13T07:56:42.585Z,84.88
2019-05-13T07:58:52.178Z,83.69
2019-05-13T08:00:58.412Z,84.19
2019-05-13T08:03:05.451Z,84.81
2019-05-13T08:05:13.391Z,83.31
2019-05-13T08:07:22.652Z,83.19
2019-05-13T08:09:31.140Z,83.73
2019-05-13T08:11:56.255Z,83.04
2019-05-13T08:13:46.694Z,84.56
2019-05-13T08:15:54.739Z,83.13
2019-05-13T08:18:02.230Z,82.79
2019-05-13T08:20:12.490Z,83.18
2019-05-13T08:22:21.809Z,81.49
2019-05-13T08:24:31.484Z,82.41
2019-05-13T08:26:45.183Z,80.75
2019-05-13T08:29:00.050Z,83.86
2019-05-13T08:30:56.127Z,81.77
2019-05-13T08:33:03.206Z,80.87
2019-05-13T08:35:12.493Z,82.36
2019-05-13T08:37:21.715Z,81.79
2019-05-13T08:39:35.678Z,82.79
2019-05-13T08:41:37.592Z,82.66
2019-05-13T08:43:52.706Z,82.26
2019-05-13T08:46:02.003Z,83.52
2019-05-13T08:48:08.644Z,82.54
2019-05-13T08:50:15.930Z,82.52
2019-05-13T08:52:23.081Z,84.28
2019-05-13T08:54:32.420Z,83.54
2019-05-13T08:56:41.447Z,84.05
2019-05-13T08:58:47.733Z,83.94
2019-05-13T09:00:58.984Z,82.66
2019-05-13T09:03:06.364Z,83.94
2019-05-13T09:05:14.798Z,82.88
2019-05-13T09:07:24.286Z,83.68
2019-05-13T09:09:31.501Z,83.26
2019-05-13T09:11:38.807Z,83.06
2019-05-13T09:13:45.911Z,82.74
2019-05-13T09:15:52.954Z,83.06
2019-05-13T09:18:02.171Z,82.90
2019-05-13T09:20:11.488Z,82.71
2019-05-13T09:22:18.180Z,82.71
2019-05-13T09:24:33.325Z,82.49
2019-05-13T09:26:34.855Z,82.53
2019-05-13T09:28:41.907Z,82.78
2019-05-13T09:30:52.746Z,81.84
2019-05-13T09:33:01.993Z,82.56
2019-05-13T09:35:11.810Z,81.18
2019-05-13T09:37:18.479Z,82.05
2019-05-13T09:39:25.983Z,80.23
2019-05-13T09:41:38.574Z,80.63
2019-05-13T09:43:42.086Z,81.21
2019-05-13T09:45:49.263Z,81.40
2019-05-13T09:47:58.184Z,79.86
2019-05-13T09:50:06.665Z,79.79
2019-05-13T09:52:13.704Z,80.40
2019-05-13T09:54:22.292Z,79.60
2019-05-13T09:56:32.054Z,80.14
2019-05-13T09:58:41.886Z,80.20
2019-05-13T10:00:48.275Z,78.98
2019-05-13T10:02:58.427Z,80.51
2019-05-13T10:05:07.392Z,80.13
2019-05-13T10:07:14.610Z,79.69
2019-05-13T10:09:21.849Z,80.85
2019-05-13T10:11:29.005Z,77.40
2019-05-13T10:13:36.117Z,80.86
2019-05-13T10:15:48.746Z,80.07
2019-05-13T10:17:53.959Z,79.34
2019-05-13T10:20:01.079Z,79.20
2019-05-13T10:22:08.485Z,79.53
2019-05-13T10:24:15.590Z,79.54
2019-05-13T10:26:22.959Z,78.85
2019-05-13T10:28:32.104Z,78.64
2019-05-13T10:30:39.402Z,78.84
2019-05-13T10:32:46.484Z,78.86
2019-05-13T10:34:55.568Z,78.04
2019-05-13T10:37:03.145Z,78.71
2019-05-13T10:39:11.893Z,78.83
2019-05-13T10:41:19.275Z,79.71
2019-05-13T10:43:31.754Z,77.42
2019-05-13T10:45:37.549Z,76.99
2019-05-13T10:47:44.684Z,77.64
2019-05-13T10:49:52.825Z,75.04
2019-05-13T10:52:02.832Z,75.20
2019-05-13T10:54:09.021Z,75.55
2019-05-13T10:56:16.187Z,74.54
2019-05-13T10:58:23.668Z,74.53
2019-05-13T11:00:47.195Z,70.09
2019-05-13T11:03:00.540Z,71.40
2019-05-13T11:05:08.588Z,69.86
2019-05-13T11:07:15.710Z,70.91
2019-05-13T11:09:23.191Z,70.55
2019-05-13T11:11:33.298Z,70.46
2019-05-13T11:13:52.156Z,71.67
2019-05-13T11:15:50.012Z,70.74
2019-05-13T11:17:58.117Z,69.36
2019-05-13T11:20:07.931Z,71.01
2019-05-13T11:22:17.643Z,70.66
2019-05-13T11:24:24.747Z,70.74
2019-05-13T11:26:36.147Z,67.87
2019-05-13T11:28:42.938Z,70.04
2019-05-13T11:30:51.907Z,69.16
2019-05-13T11:32:58.272Z,69.98
2019-05-13T11:35:07.316Z,67.10
2019-05-13T11:37:15.000Z,69.20
2019-05-13T11:39:22.523Z,68.32
2019-05-13T11:41:29.557Z,67.45
2019-05-13T11:43:36.668Z,66.01
2019-05-13T11:45:43.757Z,64.90
2019-05-13T11:47:52.208Z,65.56
2019-05-13T11:50:02.397Z,65.62
2019-05-13T11:52:11.105Z,65.11
2019-05-13T11:54:17.996Z,63.75
2019-05-13T11:56:25.068Z,63.84
2019-05-13T11:58:32.615Z,65.66
2019-05-13T12:00:53.252Z,65.05
2019-05-13T12:03:03.586Z,63.02
2019-05-13T12:05:10.186Z,63.08
2019-05-13T12:07:17.341Z,62.96
2019-05-13T12:09:26.212Z,62.58
2019-05-13T12:11:33.552Z,62.45
2019-05-13T12:13:42.629Z,64.45
2019-05-13T12:15:51.127Z,63.42
2019-05-13T12:17:58.581Z,61.92
2019-05-13T12:20:07.318Z,63.21
2019-05-13T12:22:14.435Z,64.18
2019-05-13T12:24:22.771Z,64.58
2019-05-13T12:26:33.319Z,64.75
2019-05-13T12:28:38.774Z,63.72
2019-05-13T12:30:45.956Z,62.33
2019-05-13T12:32:53.025Z,63.97
2019-05-13T12:35:03.406Z,62.38
2019-05-13T12:37:12.033Z,62.95
2019-05-13T12:39:18.166Z,61.25
2019-05-13T12:41:25.224Z,62.10
2019-05-13T12:43:32.458Z,60.83
2019-05-13T12:45:42.782Z,59.61
2019-05-13T12:47:48.352Z,58.61
2019-05-13T12:49:55.735Z,58.53
2019-05-13T12:52:04.560Z,58.86
2019-05-13T12:54:13.578Z,57.45
2019-05-13T12:56:23.375Z,60.62
2019-05-13T12:58:33.554Z,60.47
2019-05-13T13:00:38.359Z,61.02
2019-05-13T13:02:51.648Z,62.25
2019-05-13T13:05:10.870Z,64.91
2019-05-13T13:07:05.181Z,66.25
2019-05-13T13:09:14.134Z,63.89
2019-05-13T13:11:22.838Z,66.30
2019-05-13T13:13:56.215Z,65.34
2019-05-13T13:15:48.966Z,65.46
2019-05-13T13:17:54.076Z,65.21
2019-05-13T13:20:08.791Z,63.09
2019-05-13T13:22:13.345Z,62.67
2019-05-13T13:24:23.258Z,63.09
2019-05-13T13:26:27.739Z,64.35
2019-05-13T13:28:34.817Z,61.74
2019-05-13T13:30:44.252Z,62.61
2019-05-13T13:35:03.398Z,62.43
2019-05-13T13:37:09.963Z,62.92
2019-05-13T13:39:17.019Z,63.65
2019-05-13T13:41:24.159Z,61.50
2019-05-13T13:43:36.974Z,62.92
2019-05-13T13:47:59.251Z,62.30
2019-05-13T13:49:59.502Z,63.06
2019-05-13T13:52:06.761Z,63.95
2019-05-13T13:54:14.182Z,63.55
2019-05-13T13:56:25.260Z,65.19
2019-05-13T13:58:32.723Z,62.73
2019-05-13T14:00:55.099Z,64.25
2019-05-13T14:02:53.747Z,63.36
2019-05-13T14:04:57.933Z,63.38
2019-05-13T14:07:09.453Z,62.43
2019-05-13T14:07:22.636Z,63.57
2019-05-13T14:09:15.740Z,63.86
2019-05-13T14:11:23.392Z,63.57
2019-05-13T14:13:32.400Z,63.73
2019-05-13T14:15:41.773Z,63.20
2019-05-13T14:17:48.249Z,62.49
2019-05-13T14:19:55.401Z,62.51
2019-05-13T14:22:02.544Z,63.13
2019-05-13T14:24:11.888Z,62.67
2019-05-13T14:26:18.454Z,62.30
2019-05-13T14:28:25.576Z,63.28
2019-05-13T14:30:33.035Z,63.53
2019-05-13T14:32:42.424Z,62.69
2019-05-13T14:34:49.439Z,62.78
2019-05-13T14:37:01.158Z,64.51
2019-05-13T14:39:12.066Z,63.74
2019-05-13T14:41:21.772Z,63.58
2019-05-13T14:43:28.305Z,62.73
2019-05-13T14:45:35.462Z,63.50
2019-05-13T14:47:42.575Z,62.39
2019-05-13T14:49:51.648Z,64.11
2019-05-13T14:51:58.561Z,64.24
2019-05-13T14:54:05.862Z,62.45
2019-05-13T14:56:14.483Z,63.40
2019-05-13T14:58:22.028Z,62.33
2019-05-13T15:00:32.530Z,62.22
2019-05-13T15:02:38.332Z,62.65
2019-05-13T15:04:45.436Z,62.41
2019-05-13T15:06:52.748Z,62.74
2019-05-13T15:09:01.729Z,64.02
2019-05-13T15:11:12.354Z,63.77
2019-05-13T15:13:18.705Z,63.94
2019-05-13T15:15:25.763Z,63.30
2019-05-13T15:17:34.809Z,63.75
2019-05-13T15:19:42.063Z,63.73
2019-05-13T15:21:51.904Z,63.84
2019-05-13T15:23:58.208Z,64.12
2019-05-13T15:26:05.377Z,64.35
2019-05-13T15:28:12.507Z,64.87
2019-05-13T15:30:21.850Z,65.76
2019-05-13T15:32:28.727Z,64.69
2019-05-13T15:34:36.069Z,65.61
2019-05-13T15:36:44.473Z,65.55
2019-05-13T15:38:52.146Z,65.81
2019-05-13T15:41:01.190Z,66.94
2019-05-13T15:43:08.158Z,66.40
2019-05-13T15:45:15.918Z,66.46
2019-05-13T15:47:26.606Z,66.67
2019-05-13T15:49:34.886Z,66.71
2019-05-13T15:51:42.318Z,66.38
2019-05-13T15:53:51.699Z,66.94
2019-05-13T15:56:02.518Z,66.73
2019-05-13T15:58:11.748Z,67.23
2019-05-13T16:00:21.924Z,66.81
2019-05-13T16:02:28.664Z,66.68
2019-05-13T16:04:49.076Z,66.13
2019-05-13T16:06:45.674Z,66.84
2019-05-13T16:08:52.778Z,66.97
2019-05-13T16:11:02.245Z,67.06
2019-05-13T16:13:08.700Z,67.82
2019-05-13T16:15:17.932Z,67.18
2019-05-13T16:17:37.913Z,67.68
2019-05-13T16:19:33.852Z,67.73
2019-05-13T16:21:41.558Z,67.64
2019-05-13T16:23:48.886Z,66.78
2019-05-13T16:25:56.066Z,66.38
2019-05-13T16:28:06.239Z,67.19
2019-05-13T16:30:13.594Z,67.78
2019-05-13T16:32:22.730Z,67.82
2019-05-13T16:34:31.734Z,67.26
2019-05-13T16:36:38.645Z,68.08
2019-05-13T16:38:46.823Z,68.32
2019-05-13T16:40:54.178Z,68.33
2019-05-13T16:43:01.425Z,68.84
2019-05-13T16:45:08.809Z,68.66
2019-05-13T16:47:16.015Z,69.23
2019-05-13T16:49:23.118Z,69.31
2019-05-13T16:51:31.757Z,69.40
2019-05-13T16:53:38.964Z,69.41
2019-05-13T16:55:46.084Z,69.87
2019-05-13T16:57:53.128Z,69.91
2019-05-13T17:00:02.256Z,69.86
2019-05-13T17:02:09.128Z,70.21
2019-05-13T17:04:16.166Z,69.88
2019-05-13T17:06:23.308Z,70.97
2019-05-13T17:08:31.866Z,70.69
2019-05-13T17:10:39.372Z,71.09
2019-05-13T17:12:46.504Z,71.78
2019-05-13T17:14:53.567Z,71.43
2019-05-13T17:17:01.196Z,71.50
2019-05-13T17:19:08.554Z,71.52
2019-05-13T17:21:15.789Z,70.83
2019-05-13T17:23:22.956Z,70.54
2019-05-13T17:25:30.155Z,70.70
2019-05-13T17:27:37.370Z,70.58
2019-05-13T17:29:44.419Z,69.03
2019-05-13T17:31:51.640Z,68.63
2019-05-13T17:34:01.758Z,67.25
2019-05-13T17:36:08.894Z,67.87
2019-05-13T17:38:15.997Z,67.93
2019-05-13T17:40:23.049Z,68.49
2019-05-13T17:42:31.950Z,68.60
2019-05-13T17:44:38.946Z,69.24
2019-05-13T17:46:45.996Z,69.62
2019-05-13T17:48:53.085Z,69.95
2019-05-13T17:51:01.421Z,70.20
2019-05-13T17:53:11.174Z,71.66
2019-05-13T17:55:17.603Z,72.46
2019-05-13T17:57:24.822Z,72.13
2019-05-13T17:59:32.061Z,72.87
2019-05-13T18:01:41.240Z,73.42
2019-05-13T18:03:49.005Z,74.00
2019-05-13T18:05:56.054Z,73.70
2019-05-13T18:08:03.111Z,73.81
2019-05-13T18:10:12.046Z,73.33
2019-05-13T18:12:22.137Z,73.78
2019-05-13T18:14:30.218Z,73.82
2019-05-13T18:16:37.369Z,74.20
2019-05-13T18:18:47.438Z,74.15
2019-05-13T18:20:54.140Z,73.01
2019-05-13T18:23:01.726Z,73.50
2019-05-13T18:25:11.736Z,72.29
2019-05-13T18:27:18.406Z,72.38
2019-05-13T18:29:25.477Z,72.49
2019-05-13T18:31:33.203Z,71.19
2019-05-13T18:33:43.129Z,71.85
2019-05-13T18:35:52.397Z,71.89
2019-05-13T18:38:01.150Z,70.18
2019-05-13T18:40:11.422Z,68.48
2019-05-13T18:42:17.844Z,69.04
2019-05-13T18:44:26.595Z,67.75
2019-05-13T18:46:33.852Z,67.28
2019-05-13T18:48:57.674Z,67.12
2019-05-13T18:50:52.107Z,66.97
2019-05-13T18:52:58.566Z,65.60
2019-05-13T18:55:07.901Z,65.45
2019-05-13T18:57:15.025Z,67.23
2019-05-13T18:59:22.056Z,68.03
2019-05-13T19:01:32.068Z,68.35
2019-05-13T19:03:41.321Z,68.95
2019-05-13T19:05:47.955Z,69.18
2019-05-13T19:07:56.238Z,67.67
2019-05-13T19:10:03.468Z,68.19
2019-05-13T19:12:11.626Z,67.23
2019-05-13T19:14:21.123Z,66.59
2019-05-13T19:16:27.773Z,67.20
2019-05-13T19:18:34.956Z,67.53
2019-05-13T19:20:42.041Z,66.95
2019-05-13T19:22:49.087Z,67.99
2019-05-13T19:24:58.026Z,68.81
2019-05-13T19:27:07.941Z,67.65
2019-05-13T19:29:15.056Z,67.43
2019-05-13T19:31:22.410Z,69.05
2019-05-13T19:33:31.586Z,67.86
2019-05-13T19:35:38.637Z,69.45
2019-05-13T19:37:45.680Z,71.67
2019-05-13T19:39:52.849Z,71.81
2019-05-13T19:42:00.967Z,70.50
2019-05-13T19:44:08.078Z,70.32
2019-05-13T19:46:15.290Z,71.13
2019-05-13T19:48:22.558Z,71.24
2019-05-13T19:50:31.545Z,71.93
2019-05-13T19:52:38.779Z,72.46
2019-05-13T19:54:45.916Z,71.42
2019-05-13T19:56:53.167Z,72.04
2019-05-13T19:59:02.940Z,72.06
2019-05-13T20:01:11.677Z,71.94
2019-05-13T20:03:18.970Z,72.02
2019-05-13T20:05:27.828Z,71.78
2019-05-13T20:09:42.851Z,73.29
2019-05-13T20:11:54.983Z,72.42
2019-05-13T20:14:01.335Z,72.29
2019-05-13T20:16:11.693Z,72.92
2019-05-13T20:18:19.375Z,73.59
2019-05-13T20:20:26.668Z,73.97
2019-05-13T20:22:33.789Z,74.69
2019-05-13T20:24:41.975Z,75.00
2019-05-13T20:26:52.287Z,75.23
2019-05-13T20:29:01.548Z,74.91
2019-05-13T20:31:11.067Z,75.24
2019-05-13T20:33:18.311Z,74.77
2019-05-13T20:35:25.496Z,75.32
2019-05-13T20:37:32.581Z,75.54
2019-05-13T20:39:42.281Z,75.72
2019-05-13T20:41:48.464Z,76.96
2019-05-13T20:43:55.602Z,76.70
2019-05-13T20:46:02.852Z,77.23
2019-05-13T20:48:12.102Z,77.58
2019-05-13T20:50:21.496Z,77.25
2019-05-13T20:52:28.177Z,77.33
2019-05-13T20:54:35.269Z,77.91
2019-05-13T20:56:42.478Z,78.29
2019-05-13T20:58:51.604Z,77.41
2019-05-13T21:00:58.472Z,77.51
2019-05-13T21:03:05.610Z,77.58
2019-05-13T21:05:13.307Z,77.81
2019-05-13T21:07:21.734Z,78.57
2019-05-13T21:09:29.005Z,77.83
2019-05-13T21:11:36.692Z,78.45
2019-05-13T21:13:43.740Z,78.99
2019-05-13T21:15:51.885Z,78.79
2019-05-13T21:17:59.104Z,78.35
2019-05-13T21:20:18.637Z,78.72
2019-05-13T21:22:16.712Z,78.43
2019-05-13T21:24:23.761Z,79.15
2019-05-13T21:26:31.453Z,79.17
2019-05-13T21:28:38.761Z,78.97
2019-05-13T21:30:45.875Z,79.53
2019-05-13T21:32:52.927Z,79.33
2019-05-13T21:35:01.733Z,79.00
2019-05-13T21:37:11.383Z,79.50
2019-05-13T21:39:17.800Z,79.99
2019-05-13T21:41:24.957Z,80.30
2019-05-13T21:43:32.505Z,80.45
2019-05-13T21:45:41.563Z,79.90
2019-05-13T21:47:48.448Z,80.20
2019-05-13T21:49:55.501Z,80.08
2019-05-13T21:52:02.720Z,80.43
2019-05-13T21:54:11.747Z,80.20
2019-05-13T21:56:22.940Z,80.03
2019-05-13T21:58:27.446Z,79.65
2019-05-13T22:00:36.244Z,79.32
2019-05-13T22:02:48.187Z,79.84
2019-05-13T22:04:55.239Z,79.88
2019-05-13T22:07:02.388Z,80.16
2019-05-13T22:09:11.875Z,80.08
2019-05-13T22:11:19.111Z,79.74
2019-05-13T22:13:26.273Z,80.27
2019-05-13T22:15:33.482Z,79.84
2019-05-13T22:17:42.204Z,80.17
2019-05-13T22:19:51.261Z,81.07
2019-05-13T22:21:58.454Z,80.60
2019-05-13T22:24:05.577Z,81.38
2019-05-13T22:26:12.710Z,81.22
2019-05-13T22:28:21.959Z,81.83
2019-05-13T22:30:28.653Z,82.04
2019-05-13T22:32:35.744Z,81.97
2019-05-13T22:34:42.791Z,82.04
2019-05-13T22:36:51.679Z,82.18
2019-05-13T22:38:58.699Z,82.35
2019-05-13T22:41:05.815Z,82.66
2019-05-13T22:43:12.874Z,82.90
2019-05-13T22:45:21.957Z,83.24
2019-05-13T22:47:31.503Z,82.98
2019-05-13T22:49:38.770Z,83.17
2019-05-13T22:51:45.854Z,83.28
2019-05-13T22:53:53.484Z,83.57
2019-05-13T22:56:03.554Z,83.52
2019-05-13T22:58:10.635Z,83.62
2019-05-13T23:00:18.090Z,83.85
2019-05-13T23:02:26.743Z,84.27
2019-05-13T23:04:33.830Z,84.31
2019-05-13T23:06:40.979Z,84.58
2019-05-13T23:08:48.032Z,84.52
2019-05-13T23:10:56.211Z,84.64
2019-05-13T23:13:03.333Z,84.47
2019-05-13T23:15:11.942Z,84.08
2019-05-13T23:17:21.399Z,84.31
2019-05-13T23:19:32.065Z,84.86
2019-05-13T23:21:38.551Z,85.01
2019-05-13T23:23:45.699Z,84.72
2019-05-13T23:25:52.850Z,84.47
2019-05-13T23:28:00.014Z,85.19
2019-05-13T23:30:08.917Z,84.33
2019-05-13T23:32:15.967Z,84.34
2019-05-13T23:34:23.025Z,84.57
2019-05-13T23:36:31.636Z,84.28
2019-05-13T23:38:41.775Z,84.47
2019-05-13T23:40:48.831Z,84.66
2019-05-13T23:42:55.976Z,84.19
2019-05-13T23:45:03.400Z,84.37
2019-05-13T23:47:11.503Z,84.29
2019-05-13T23:49:20.933Z,84.46
2019-05-13T23:51:27.535Z,84.35
2019-05-13T23:53:34.580Z,84.77
2019-05-13T23:55:41.658Z,84.53
2019-05-13T23:57:48.716Z,84.52
2019-05-13T23:59:55.775Z,84.36
